createdAt,value
2019-02-06T00:01:44.382Z,-3.50
2019-02-06T00:04:15.415Z,-3.49
2019-02-06T00:06:42.287Z,-3.49
2019-02-06T00:09:12.808Z,-3.49
2019-02-06T00:11:40.455Z,-3.49
2019-02-06T00:14:08.054Z,-3.53
2019-02-06T00:16:35.809Z,-3.50
2019-02-06T00:19:03.807Z,-3.51
2019-02-06T00:21:31.473Z,-3.61
2019-02-06T00:23:59.307Z,-3.64
2019-02-06T00:26:26.974Z,-3.78
2019-02-06T00:28:54.617Z,-3.77
2019-02-06T00:31:22.307Z,-3.80
2019-02-06T00:33:49.961Z,-3.78
2019-02-06T00:36:17.600Z,-3.75
2019-02-06T00:38:45.234Z,-3.77
2019-02-06T00:41:13.142Z,-3.80
2019-02-06T00:43:41.100Z,-3.77
2019-02-06T00:46:09.060Z,-3.77
2019-02-06T00:48:36.651Z,-3.80
2019-02-06T00:51:04.253Z,-3.75
2019-02-06T00:53:31.948Z,-3.74
2019-02-06T00:55:59.862Z,-3.73
2019-02-06T00:58:27.789Z,-3.71
2019-02-06T01:00:55.716Z,-3.73
2019-02-06T01:03:23.679Z,-3.71
2019-02-06T01:05:51.347Z,-3.73
2019-02-06T01:08:19.001Z,-3.86
2019-02-06T01:10:46.786Z,-3.82
2019-02-06T01:13:14.534Z,-3.89
2019-02-06T01:15:42.271Z,-3.94
2019-02-06T01:18:10.395Z,-3.98
2019-02-06T01:20:38.336Z,-3.90
2019-02-06T01:23:06.455Z,-3.83
2019-02-06T01:25:34.573Z,-3.84
2019-02-06T01:28:02.659Z,-3.85
2019-02-06T01:30:36.921Z,-3.86
2019-02-06T01:33:04.885Z,-3.89
2019-02-06T01:35:33.048Z,-3.88
2019-02-06T01:38:01.075Z,-3.87
2019-02-06T01:40:29.818Z,-3.92
2019-02-06T01:42:57.994Z,-3.98
2019-02-06T01:45:26.070Z,-3.95
2019-02-06T01:47:54.368Z,-3.92
2019-02-06T01:50:22.538Z,-3.93
2019-02-06T01:52:50.371Z,-3.94
2019-02-06T01:55:18.617Z,-3.93
2019-02-06T01:57:46.644Z,-3.91
2019-02-06T02:00:17.303Z,-3.96
2019-02-06T02:02:45.256Z,-3.97
2019-02-06T02:05:14.802Z,-4.03
2019-02-06T02:07:42.711Z,-4.07
2019-02-06T02:10:10.593Z,-4.09
2019-02-06T02:12:38.578Z,-4.08
2019-02-06T02:15:08.553Z,-4.10
2019-02-06T02:17:36.264Z,-4.14
2019-02-06T02:20:06.933Z,-4.21
2019-02-06T02:22:37.435Z,-4.36
2019-02-06T02:25:05.808Z,-4.41
2019-02-06T02:27:33.750Z,-4.45
2019-02-06T02:30:03.828Z,-4.49
2019-02-06T02:32:31.920Z,-4.52
2019-02-06T02:34:59.931Z,-4.48
2019-02-06T02:37:28.168Z,-4.46
2019-02-06T02:39:56.143Z,-4.39
2019-02-06T02:42:24.012Z,-4.40
2019-02-06T02:44:52.107Z,-4.39
2019-02-06T02:47:20.200Z,-4.41
2019-02-06T02:49:47.989Z,-4.41
2019-02-06T02:52:16.039Z,-4.40
2019-02-06T02:54:44.070Z,-4.41
2019-02-06T02:57:11.933Z,-4.42
2019-02-06T02:59:39.954Z,-4.42
2019-02-06T03:02:21.288Z,-4.47
2019-02-06T03:04:53.859Z,-4.51
2019-02-06T03:07:21.629Z,-4.60
2019-02-06T03:09:49.512Z,-4.54
2019-02-06T03:12:18.251Z,-4.63
2019-02-06T03:14:46.562Z,-4.76
2019-02-06T03:17:14.553Z,-4.70
2019-02-06T03:19:44.229Z,-4.70
2019-02-06T03:22:12.526Z,-4.67
2019-02-06T03:24:41.172Z,-4.69
2019-02-06T03:27:09.244Z,-4.70
2019-02-06T03:29:37.454Z,-4.69
2019-02-06T03:32:05.529Z,-4.67
2019-02-06T03:34:33.688Z,-4.68
2019-02-06T03:37:04.046Z,-4.66
2019-02-06T03:39:36.093Z,-4.65
2019-02-06T03:42:04.578Z,-4.66
2019-02-06T03:44:32.632Z,-4.63
2019-02-06T03:47:00.550Z,-4.64
2019-02-06T03:49:28.693Z,-4.64
2019-02-06T03:51:56.377Z,-4.63
2019-02-06T03:54:24.431Z,-4.64
2019-02-06T03:56:52.337Z,-4.62
2019-02-06T03:59:20.234Z,-4.68
2019-02-06T04:01:48.073Z,-4.67
2019-02-06T04:04:17.039Z,-4.73
2019-02-06T04:06:53.370Z,-4.79
2019-02-06T04:09:14.819Z,-4.88
2019-02-06T04:11:42.676Z,-4.92
2019-02-06T04:14:10.543Z,-4.92
2019-02-06T04:16:38.483Z,-4.90
2019-02-06T04:19:06.732Z,-4.88
2019-02-06T04:21:34.705Z,-4.87
2019-02-06T04:24:03.886Z,-4.98
2019-02-06T04:26:31.893Z,-4.89
2019-02-06T04:29:00.118Z,-4.94
2019-02-06T04:31:27.920Z,-4.91
2019-02-06T04:33:55.891Z,-4.94
2019-02-06T04:36:23.771Z,-4.94
2019-02-06T04:38:51.767Z,-4.92
2019-02-06T04:41:19.707Z,-4.91
2019-02-06T04:43:47.671Z,-4.93
2019-02-06T04:46:15.806Z,-4.89
2019-02-06T04:48:43.802Z,-4.88
2019-02-06T04:51:11.689Z,-4.87
2019-02-06T04:53:39.604Z,-4.85
2019-02-06T04:56:07.506Z,-4.82
2019-02-06T04:58:35.471Z,-4.87
2019-02-06T05:01:03.647Z,-4.87
2019-02-06T05:03:32.107Z,-4.90
2019-02-06T05:05:59.902Z,-4.95
2019-02-06T05:08:27.850Z,-4.94
2019-02-06T05:10:55.801Z,-5.00
2019-02-06T05:13:23.846Z,-4.96
2019-02-06T05:15:51.849Z,-5.00
2019-02-06T05:18:19.741Z,-5.02
2019-02-06T05:20:48.128Z,-4.97
2019-02-06T05:23:16.305Z,-5.00
2019-02-06T05:25:44.284Z,-4.99
2019-02-06T05:28:12.296Z,-5.04
2019-02-06T05:30:40.397Z,-4.99
2019-02-06T05:33:09.464Z,-5.00
2019-02-06T05:35:37.586Z,-5.04
2019-02-06T05:38:05.768Z,-5.02
2019-02-06T05:40:33.885Z,-5.01
2019-02-06T05:43:01.920Z,-5.07
2019-02-06T05:45:30.064Z,-5.07
2019-02-06T05:47:58.159Z,-5.12
2019-02-06T05:50:26.151Z,-5.13
2019-02-06T05:52:54.012Z,-5.05
2019-02-06T05:55:21.924Z,-5.11
2019-02-06T05:57:50.056Z,-5.15
2019-02-06T06:00:22.562Z,-5.14
2019-02-06T06:02:50.517Z,-5.13
2019-02-06T06:05:18.788Z,-5.19
2019-02-06T06:07:46.717Z,-5.14
2019-02-06T06:10:15.293Z,-5.12
2019-02-06T06:12:43.615Z,-5.14
2019-02-06T06:15:12.705Z,-5.13
2019-02-06T06:17:40.820Z,-5.15
2019-02-06T06:20:09.516Z,-5.14
2019-02-06T06:22:37.424Z,-5.14
2019-02-06T06:25:05.661Z,-5.10
2019-02-06T06:27:33.732Z,-5.11
2019-02-06T06:30:01.924Z,-5.07
2019-02-06T06:32:31.948Z,-5.05
2019-02-06T06:34:59.986Z,-5.05
2019-02-06T06:37:28.067Z,-4.90
2019-02-06T06:39:56.098Z,-4.80
2019-02-06T06:42:24.399Z,-4.74
2019-02-06T06:44:52.666Z,-4.53
2019-02-06T06:47:22.494Z,-4.35
2019-02-06T06:49:50.480Z,-4.15
2019-02-06T06:52:18.543Z,-3.92
2019-02-06T06:54:46.576Z,-3.65
2019-02-06T06:57:14.818Z,-3.43
2019-02-06T06:59:42.955Z,-3.20
2019-02-06T07:02:11.102Z,-3.04
2019-02-06T07:04:39.451Z,-2.83
2019-02-06T07:07:07.599Z,-2.69
2019-02-06T07:09:35.572Z,-2.36
2019-02-06T07:12:03.560Z,-1.93
2019-02-06T07:14:31.748Z,-1.72
2019-02-06T07:16:59.947Z,-1.42
2019-02-06T07:19:27.956Z,-1.11
2019-02-06T07:21:56.269Z,-0.97
2019-02-06T07:24:24.172Z,-0.64
2019-02-06T07:26:52.204Z,-0.46
2019-02-06T07:29:20.275Z,-0.08
2019-02-06T07:31:48.540Z,0.15
2019-02-06T07:34:16.973Z,0.33
2019-02-06T07:36:45.308Z,0.74
2019-02-06T07:39:13.317Z,0.85
2019-02-06T07:41:41.452Z,1.08
2019-02-06T07:44:09.378Z,0.76
2019-02-06T07:46:38.393Z,0.93
2019-02-06T07:49:06.318Z,1.43
2019-02-06T07:51:34.519Z,1.72
2019-02-06T07:54:02.861Z,2.07
2019-02-06T07:56:31.015Z,2.41
2019-02-06T07:58:59.150Z,2.77
2019-02-06T08:01:27.192Z,3.06
2019-02-06T08:03:55.621Z,3.35
2019-02-06T08:06:23.768Z,3.63
2019-02-06T08:08:51.808Z,3.87
2019-02-06T08:11:20.102Z,3.77
2019-02-06T08:13:48.139Z,3.97
2019-02-06T08:16:15.940Z,3.95
2019-02-06T08:18:43.778Z,4.15
2019-02-06T08:21:11.963Z,4.16
2019-02-06T08:23:40.020Z,4.50
2019-02-06T08:26:08.320Z,4.57
2019-02-06T08:28:36.655Z,4.73
2019-02-06T08:31:04.579Z,5.12
2019-02-06T08:33:32.235Z,5.40
2019-02-06T08:35:59.936Z,4.96
2019-02-06T08:38:28.166Z,5.26
2019-02-06T08:40:56.266Z,5.44
2019-02-06T08:43:24.747Z,5.61
2019-02-06T08:45:54.036Z,5.68
2019-02-06T08:48:22.085Z,6.14
2019-02-06T08:50:50.183Z,6.12
2019-02-06T08:53:18.125Z,6.27
2019-02-06T08:55:46.093Z,6.02
2019-02-06T08:58:14.191Z,6.23
2019-02-06T09:00:42.294Z,6.63
2019-02-06T09:03:10.872Z,6.96
2019-02-06T09:05:39.086Z,7.21
2019-02-06T09:08:07.483Z,7.19
2019-02-06T09:10:35.764Z,7.15
2019-02-06T09:13:05.541Z,7.05
2019-02-06T09:15:33.984Z,7.51
2019-02-06T09:18:01.931Z,7.72
2019-02-06T09:20:30.586Z,8.15
2019-02-06T09:22:59.586Z,8.07
2019-02-06T09:25:27.697Z,8.24
2019-02-06T09:27:56.059Z,8.29
2019-02-06T09:30:25.597Z,8.42
2019-02-06T09:32:53.802Z,8.03
2019-02-06T09:35:22.014Z,8.34
2019-02-06T09:37:50.061Z,8.56
2019-02-06T09:40:19.953Z,8.75
2019-02-06T09:42:48.247Z,8.61
2019-02-06T09:45:16.320Z,8.62
2019-02-06T09:47:44.362Z,9.08
2019-02-06T09:50:15.808Z,8.72
2019-02-06T09:52:43.929Z,9.07
2019-02-06T09:55:11.766Z,9.27
2019-02-06T09:57:39.852Z,9.32
2019-02-06T10:00:11.739Z,9.23
2019-02-06T10:02:39.311Z,9.29
2019-02-06T10:05:07.545Z,9.41
2019-02-06T10:07:35.785Z,9.70
2019-02-06T10:10:04.452Z,9.45
2019-02-06T10:12:32.118Z,9.55
2019-02-06T10:14:59.772Z,9.25
2019-02-06T10:17:27.461Z,9.41
2019-02-06T10:19:55.167Z,10.03
2019-02-06T10:22:22.813Z,9.78
2019-02-06T10:24:50.502Z,9.91
2019-02-06T10:27:18.357Z,9.81
2019-02-06T10:29:45.964Z,10.31
2019-02-06T10:32:13.711Z,9.75
2019-02-06T10:34:41.471Z,10.50
2019-02-06T10:37:09.141Z,10.61
2019-02-06T10:39:36.869Z,10.58
2019-02-06T10:42:04.494Z,10.78
2019-02-06T10:44:32.170Z,10.72
2019-02-06T10:46:59.882Z,10.56
2019-02-06T10:49:27.598Z,10.65
2019-02-06T10:51:55.353Z,10.99
2019-02-06T10:54:23.025Z,11.23
2019-02-06T10:56:50.600Z,11.18
2019-02-06T10:59:19.283Z,11.25
2019-02-06T11:01:47.499Z,11.43
2019-02-06T11:04:15.137Z,11.34
2019-02-06T11:06:42.905Z,11.35
2019-02-06T11:09:10.709Z,11.44
2019-02-06T11:11:38.373Z,11.18
2019-02-06T11:14:06.350Z,11.39
2019-02-06T11:16:33.966Z,11.25
2019-02-06T11:19:02.191Z,11.51
2019-02-06T11:21:29.826Z,11.26
2019-02-06T11:23:57.879Z,11.32
2019-02-06T11:26:25.965Z,11.39
2019-02-06T11:28:55.459Z,11.66
2019-02-06T11:31:23.371Z,11.45
2019-02-06T11:33:51.501Z,11.11
2019-02-06T11:36:24.271Z,11.06
2019-02-06T11:38:50.066Z,11.22
2019-02-06T11:41:17.662Z,10.45
2019-02-06T11:43:45.288Z,10.75
2019-02-06T11:46:12.850Z,11.37
2019-02-06T11:48:43.271Z,11.53
2019-02-06T11:51:09.879Z,11.63
2019-02-06T11:53:37.505Z,12.06
2019-02-06T11:56:05.136Z,11.84
2019-02-06T11:58:32.778Z,11.05
2019-02-06T12:01:07.205Z,11.68
2019-02-06T12:03:35.106Z,11.59
2019-02-06T12:06:02.859Z,11.18
2019-02-06T12:08:31.346Z,10.74
2019-02-06T12:10:59.035Z,10.75
2019-02-06T12:13:26.738Z,10.98
2019-02-06T12:15:54.607Z,11.08
2019-02-06T12:18:22.290Z,11.28
2019-02-06T12:20:49.930Z,11.52
2019-02-06T12:23:17.539Z,12.06
2019-02-06T12:25:45.596Z,12.04
2019-02-06T12:28:13.298Z,12.12
2019-02-06T12:30:41.740Z,12.00
2019-02-06T12:33:10.356Z,11.55
2019-02-06T12:35:37.952Z,11.41
2019-02-06T12:38:05.629Z,11.78
2019-02-06T12:40:33.269Z,11.48
2019-02-06T12:43:00.856Z,11.54
2019-02-06T12:45:30.207Z,12.03
2019-02-06T12:47:57.905Z,12.00
2019-02-06T12:50:25.681Z,12.08
2019-02-06T12:52:57.154Z,11.78
2019-02-06T12:55:26.276Z,11.97
2019-02-06T12:57:53.806Z,11.77
2019-02-06T13:00:23.938Z,11.93
2019-02-06T13:02:51.764Z,12.10
2019-02-06T13:05:19.401Z,11.67
2019-02-06T13:07:47.005Z,11.87
2019-02-06T13:10:15.085Z,11.81
2019-02-06T13:12:42.643Z,11.79
2019-02-06T13:15:11.248Z,11.67
2019-02-06T13:17:38.855Z,11.52
2019-02-06T13:20:11.692Z,11.66
2019-02-06T13:22:40.420Z,11.66
2019-02-06T13:25:08.734Z,11.53
2019-02-06T13:27:36.361Z,11.78
2019-02-06T13:30:07.005Z,12.02
2019-02-06T13:32:34.544Z,11.93
2019-02-06T13:35:02.289Z,12.20
2019-02-06T13:37:29.848Z,12.33
2019-02-06T13:39:57.721Z,12.02
2019-02-06T13:42:25.422Z,12.15
2019-02-06T13:44:53.006Z,12.22
2019-02-06T13:47:20.482Z,12.14
2019-02-06T13:49:48.124Z,11.95
2019-02-06T13:52:15.684Z,12.19
2019-02-06T13:54:43.277Z,12.22
2019-02-06T13:57:10.860Z,12.04
2019-02-06T13:59:38.561Z,11.99
2019-02-06T14:02:06.495Z,11.70
2019-02-06T14:04:34.036Z,11.60
2019-02-06T14:07:01.573Z,11.07
2019-02-06T14:09:29.167Z,10.95
2019-02-06T14:11:56.818Z,11.02
2019-02-06T14:14:26.908Z,10.58
2019-02-06T14:16:54.976Z,10.74
2019-02-06T14:19:22.601Z,10.79
2019-02-06T14:21:50.242Z,10.71
2019-02-06T14:24:48.738Z,10.77
2019-02-06T14:27:58.647Z,10.73
2019-02-06T14:31:22.873Z,10.89
2019-02-06T14:34:43.975Z,10.89
2019-02-06T14:37:41.662Z,10.43
2019-02-06T14:40:25.765Z,10.06
2019-02-06T14:43:35.706Z,9.93
2019-02-06T14:47:03.468Z,9.99
2019-02-06T14:50:04.127Z,9.76
2019-02-06T14:53:12.265Z,9.58
2019-02-06T14:56:32.851Z,9.50
2019-02-06T14:59:30.354Z,9.39
2019-02-06T15:02:51.827Z,9.17
2019-02-06T15:06:03.399Z,8.60
2019-02-06T15:09:22.181Z,8.46
2019-02-06T15:12:24.988Z,8.32
2019-02-06T15:15:21.358Z,7.99
2019-02-06T15:18:15.919Z,7.90
2019-02-06T15:20:59.735Z,7.86
2019-02-06T15:23:50.937Z,7.68
2019-02-06T15:27:03.657Z,7.54
2019-02-06T15:30:05.239Z,7.19
2019-02-06T15:33:16.491Z,7.10
2019-02-06T15:36:29.174Z,6.97
2019-02-06T15:39:35.696Z,6.78
2019-02-06T15:42:49.490Z,6.46
2019-02-06T15:45:49.753Z,6.37
2019-02-06T15:48:56.173Z,6.10
2019-02-06T15:51:42.764Z,5.80
2019-02-06T15:55:00.799Z,5.73
2019-02-06T15:57:36.981Z,5.64
2019-02-06T16:00:21.127Z,5.41
2019-02-06T16:03:13.328Z,5.30
2019-02-06T16:06:27.507Z,5.26
2019-02-06T16:09:39.354Z,5.18
2019-02-06T16:12:42.946Z,4.95
2019-02-06T16:15:54.618Z,4.64
2019-02-06T16:18:56.778Z,4.57
2019-02-06T16:22:07.056Z,4.39
2019-02-06T16:24:55.390Z,4.21
2019-02-06T16:28:00.174Z,4.01
2019-02-06T16:30:47.951Z,3.82
2019-02-06T16:34:00.319Z,3.63
2019-02-06T16:37:17.392Z,3.49
2019-02-06T16:40:33.430Z,3.32
2019-02-06T16:43:32.494Z,3.17
2019-02-06T16:46:36.523Z,3.08
2019-02-06T16:49:36.470Z,2.94
2019-02-06T16:53:04.003Z,2.80
2019-02-06T16:56:11.061Z,2.64
2019-02-06T16:59:02.762Z,2.52
2019-02-06T17:02:20.306Z,2.46
2019-02-06T17:05:31.307Z,2.34
2019-02-06T17:08:36.717Z,2.22
2019-02-06T17:11:42.873Z,2.14
2019-02-06T17:14:55.429Z,2.10
2019-02-06T17:18:00.746Z,2.01
2019-02-06T17:21:11.060Z,1.89
2019-02-06T17:24:20.363Z,1.83
2019-02-06T17:27:26.043Z,1.74
2019-02-06T17:30:53.230Z,1.66
2019-02-06T17:33:49.084Z,1.55
2019-02-06T17:36:58.497Z,1.42
2019-02-06T17:40:11.212Z,1.34
2019-02-06T17:43:16.290Z,1.26
2019-02-06T17:46:31.588Z,1.09
2019-02-06T17:49:11.640Z,1.11
2019-02-06T17:51:53.200Z,1.07
2019-02-06T17:54:40.112Z,1.04
2019-02-06T17:57:07.946Z,0.99
2019-02-06T17:59:36.668Z,0.93
2019-02-06T18:02:07.273Z,0.94
2019-02-06T18:04:39.555Z,0.89
2019-02-06T18:07:07.655Z,0.75
2019-02-06T18:09:35.770Z,0.63
2019-02-06T18:12:04.701Z,0.60
2019-02-06T18:14:32.525Z,0.63
2019-02-06T18:17:02.158Z,0.63
2019-02-06T18:19:36.207Z,0.54
2019-02-06T18:22:04.997Z,0.31
2019-02-06T18:24:33.087Z,0.31
2019-02-06T18:27:01.244Z,0.38
2019-02-06T18:29:29.273Z,0.36
2019-02-06T18:31:57.399Z,0.19
2019-02-06T18:34:25.667Z,0.13
2019-02-06T18:36:54.066Z,0.19
2019-02-06T18:39:22.131Z,0.24
2019-02-06T18:41:50.046Z,0.19
2019-02-06T18:44:18.122Z,0.06
2019-02-06T18:46:48.075Z,0.04
2019-02-06T18:49:16.066Z,0.06
2019-02-06T18:51:44.177Z,0.05
2019-02-06T18:54:12.249Z,0.02
2019-02-06T18:56:40.237Z,-0.02
2019-02-06T18:59:08.261Z,-0.05
2019-02-06T19:01:36.281Z,-0.08
2019-02-06T19:04:07.345Z,-0.13
2019-02-06T19:06:35.346Z,-0.16
2019-02-06T19:09:09.357Z,-0.21
2019-02-06T19:11:37.395Z,-0.21
2019-02-06T19:14:05.697Z,-0.25
2019-02-06T19:16:33.773Z,-0.28
2019-02-06T19:19:02.221Z,-0.28
2019-02-06T19:21:29.821Z,-0.29
2019-02-06T19:23:57.943Z,-0.32
2019-02-06T19:26:25.994Z,-0.43
2019-02-06T19:28:54.053Z,-0.43
2019-02-06T19:31:22.030Z,-0.46
2019-02-06T19:33:49.906Z,-0.49
2019-02-06T19:36:17.869Z,-0.56
2019-02-06T19:38:46.243Z,-0.56
2019-02-06T19:41:14.439Z,-0.62
2019-02-06T19:43:42.410Z,-0.62
2019-02-06T19:46:10.335Z,-0.72
2019-02-06T19:48:38.400Z,-0.67
2019-02-06T19:51:06.320Z,-0.74
2019-02-06T19:53:34.316Z,-0.81
2019-02-06T19:56:02.651Z,-0.83
2019-02-06T19:58:30.708Z,-0.87
2019-02-06T20:00:58.555Z,-0.90
2019-02-06T20:03:26.535Z,-0.88
2019-02-06T20:05:54.573Z,-0.91
2019-02-06T20:08:22.598Z,-1.01
2019-02-06T20:10:50.571Z,-0.92
2019-02-06T20:13:18.624Z,-1.06
2019-02-06T20:15:46.630Z,-1.09
2019-02-06T20:18:14.870Z,-1.11
2019-02-06T20:20:42.779Z,-1.14
2019-02-06T20:23:12.066Z,-1.28
2019-02-06T20:25:40.581Z,-1.29
2019-02-06T20:28:08.685Z,-1.30
2019-02-06T20:30:37.891Z,-1.32
2019-02-06T20:33:05.962Z,-1.36
2019-02-06T20:35:34.303Z,-1.42
2019-02-06T20:38:03.368Z,-1.44
2019-02-06T20:40:32.684Z,-1.44
2019-02-06T20:43:00.739Z,-1.47
2019-02-06T20:45:28.699Z,-1.45
2019-02-06T20:47:56.706Z,-1.48
2019-02-06T20:50:28.590Z,-1.47
2019-02-06T20:52:57.272Z,-1.51
2019-02-06T20:55:25.433Z,-1.57
2019-02-06T20:57:54.370Z,-1.57
2019-02-06T21:00:27.140Z,-1.60
2019-02-06T21:02:55.241Z,-1.67
2019-02-06T21:05:23.184Z,-1.77
2019-02-06T21:07:51.157Z,-1.98
2019-02-06T21:10:21.263Z,-1.97
2019-02-06T21:12:49.180Z,-2.09
2019-02-06T21:15:17.126Z,-2.22
2019-02-06T21:17:45.437Z,-2.19
2019-02-06T21:20:15.198Z,-2.15
2019-02-06T21:22:43.564Z,-2.08
2019-02-06T21:25:12.494Z,-2.05
2019-02-06T21:27:40.642Z,-2.04
2019-02-06T21:30:12.782Z,-2.03
2019-02-06T21:32:40.977Z,-2.04
2019-02-06T21:35:08.960Z,-2.02
2019-02-06T21:37:36.778Z,-2.05
2019-02-06T21:40:06.614Z,-2.06
2019-02-06T21:42:35.746Z,-2.12
2019-02-06T21:45:04.378Z,-2.17
2019-02-06T21:47:32.581Z,-2.15
2019-02-06T21:50:00.621Z,-2.20
2019-02-06T21:52:28.639Z,-2.19
2019-02-06T21:54:56.682Z,-2.18
2019-02-06T21:57:24.818Z,-2.39
2019-02-06T21:59:52.691Z,-2.42
2019-02-06T22:02:20.623Z,-2.42
2019-02-06T22:04:48.605Z,-2.40
2019-02-06T22:07:16.553Z,-2.43
2019-02-06T22:09:44.558Z,-2.40
2019-02-06T22:12:12.352Z,-2.43
2019-02-06T22:14:40.955Z,-2.45
2019-02-06T22:17:09.009Z,-2.46
2019-02-06T22:19:37.045Z,-2.46
2019-02-06T22:22:04.975Z,-2.49
2019-02-06T22:24:32.952Z,-2.54
2019-02-06T22:27:01.086Z,-2.53
2019-02-06T22:29:29.094Z,-2.57
2019-02-06T22:31:57.274Z,-2.59
2019-02-06T22:34:25.208Z,-2.59
2019-02-06T22:36:53.314Z,-2.59
2019-02-06T22:39:21.173Z,-2.58
2019-02-06T22:41:49.171Z,-2.62
2019-02-06T22:44:17.010Z,-2.64
2019-02-06T22:46:44.997Z,-2.66
2019-02-06T22:49:13.339Z,-2.80
2019-02-06T22:51:41.220Z,-2.74
2019-02-06T22:54:09.257Z,-2.83
2019-02-06T22:56:37.159Z,-2.88
2019-02-06T22:59:05.114Z,-2.85
2019-02-06T23:01:41.184Z,-2.87
2019-02-06T23:04:09.159Z,-2.86
2019-02-06T23:06:37.209Z,-2.89
2019-02-06T23:09:07.268Z,-2.92
2019-02-06T23:11:35.288Z,-2.94
2019-02-06T23:14:03.408Z,-2.93
2019-02-06T23:16:31.265Z,-2.95
2019-02-06T23:18:59.647Z,-2.97
2019-02-06T23:21:27.795Z,-2.97
2019-02-06T23:23:56.034Z,-3.17
2019-02-06T23:26:24.002Z,-3.32
2019-02-06T23:28:53.108Z,-3.48
2019-02-06T23:31:21.099Z,-3.40
2019-02-06T23:33:49.095Z,-3.34
2019-02-06T23:36:17.092Z,-3.29
2019-02-06T23:38:45.117Z,-3.33
2019-02-06T23:41:12.908Z,-3.31
2019-02-06T23:43:40.930Z,-3.35
2019-02-06T23:46:08.971Z,-3.32
2019-02-06T23:48:37.077Z,-3.36
2019-02-06T23:51:05.274Z,-3.37
2019-02-06T23:53:33.459Z,-3.37
2019-02-06T23:56:01.314Z,-3.37
2019-02-06T23:58:29.405Z,-3.39
